Deanshanger, United Kingdom
Current Conditions -  °F | °C
As of 10:20 AM on Sunday 26 Oct 2014 (Local Time) from EGTC Reporting Station
Broken Clouds Broken Clouds  
Wind Chill: 55°   Ceiling: 3000
Heat Index: 55°   Visibility: 6mi
Dew Point: 52°   Wind: 14mph
Humidity: 88%   Direction: 210°SSW
Pressure: 30.12"   Gusts: NA
Location:  52.05°N, 0.89°W
Report Text: EGTC 260920Z 21012KT 9999 BKN030 13/11 Q1020
Loading
Personal Weather Stations






























Interactive Weather Map New forecast layout! Learn more

10-Day Weather Forecast

Advertisements
Track Severe Weather on mobile